createdAt,value
2022-12-17T00:04:43.213Z,-5.24
2022-12-17T00:09:48.591Z,-5.26
2022-12-17T00:14:44.088Z,-5.29
2022-12-17T00:20:09.023Z,-5.33
2022-12-17T00:25:12.092Z,-5.43
2022-12-17T00:30:04.493Z,-5.54
2022-12-17T00:35:04.472Z,-5.60
2022-12-17T00:40:05.171Z,-5.59
2022-12-17T00:45:04.319Z,-5.54
2022-12-17T00:50:04.258Z,-5.48
2022-12-17T00:55:04.219Z,-5.42
2022-12-17T01:00:04.095Z,-5.36
2022-12-17T01:10:39.624Z,-4.01
2022-12-17T01:15:39.564Z,-4.52
2022-12-17T01:20:39.517Z,-4.79
2022-12-17T01:25:39.452Z,-4.92
2022-12-17T01:30:39.388Z,-4.98
2022-12-17T01:35:39.324Z,-5.01
2022-12-17T01:40:39.275Z,-5.02
2022-12-17T01:45:39.228Z,-5.03
2022-12-17T01:50:39.124Z,-5.03
2022-12-17T01:55:39.073Z,-5.00
2022-12-17T02:00:38.991Z,-4.97
2022-12-17T02:05:38.939Z,-4.94
2022-12-17T02:10:38.864Z,-4.91
2022-12-17T02:15:38.806Z,-4.89
2022-12-17T02:20:38.719Z,-4.88
2022-12-17T02:25:38.690Z,-4.88
2022-12-17T02:30:38.583Z,-4.87
2022-12-17T02:35:38.551Z,-4.86
2022-12-17T02:40:38.490Z,-4.83
2022-12-17T02:45:38.494Z,-4.80
2022-12-17T02:50:38.380Z,-4.77
2022-12-17T02:55:38.339Z,-4.75
2022-12-17T03:00:38.212Z,-4.72
2022-12-17T03:05:45.961Z,-4.69
2022-12-17T03:10:39.106Z,-4.65
2022-12-17T03:15:38.027Z,-4.63
2022-12-17T03:20:37.956Z,-4.60
2022-12-17T03:25:37.915Z,-4.58
2022-12-17T03:30:39.059Z,-4.55
2022-12-17T03:35:37.786Z,-4.52
2022-12-17T03:40:37.694Z,-4.49
2022-12-17T03:45:38.684Z,-4.47
2022-12-17T03:50:37.580Z,-4.45
2022-12-17T03:55:37.519Z,-4.44
2022-12-17T04:00:37.464Z,-4.43
2022-12-17T04:05:37.376Z,-4.42
2022-12-17T04:10:37.327Z,-4.42
2022-12-17T04:15:37.329Z,-4.45
2022-12-17T04:20:37.189Z,-4.49
2022-12-17T04:25:37.171Z,-4.52
2022-12-17T04:30:37.146Z,-4.56
2022-12-17T04:35:37.005Z,-4.59
2022-12-17T04:40:36.928Z,-4.63
2022-12-17T04:45:36.876Z,-4.64
2022-12-17T04:50:36.804Z,-4.65
2022-12-17T04:55:36.763Z,-4.65
2022-12-17T05:00:36.643Z,-4.62
2022-12-17T05:05:36.634Z,-4.58
2022-12-17T05:10:36.544Z,-4.54
2022-12-17T05:15:53.043Z,-4.50
2022-12-17T05:20:42.160Z,-4.46
2022-12-17T05:25:42.082Z,-4.44
2022-12-17T05:30:42.030Z,-4.41
2022-12-17T05:35:41.938Z,-4.40
2022-12-17T05:40:41.892Z,-4.39
2022-12-17T05:45:41.837Z,-4.39
2022-12-17T05:50:43.490Z,-4.39
2022-12-17T05:55:41.706Z,-4.37
2022-12-17T06:00:41.640Z,-4.36
2022-12-17T06:05:41.566Z,-4.35
2022-12-17T06:10:41.501Z,-4.34
2022-12-17T06:15:41.501Z,-4.33
2022-12-17T06:20:41.375Z,-4.34
2022-12-17T06:25:41.320Z,-4.35
2022-12-17T06:30:41.236Z,-4.36
2022-12-17T06:35:41.182Z,-4.37
2022-12-17T06:40:41.105Z,-4.38
2022-12-17T06:45:41.058Z,-4.41
2022-12-17T06:50:40.986Z,-4.46
2022-12-17T06:55:40.928Z,-4.51
2022-12-17T07:00:40.924Z,-4.54
2022-12-17T07:05:40.838Z,-4.55
2022-12-17T07:10:40.723Z,-4.53
2022-12-17T07:15:40.684Z,-4.50
2022-12-17T07:20:40.615Z,-4.47
2022-12-17T07:25:45.669Z,-4.44
2022-12-17T07:30:41.483Z,-4.42
2022-12-17T07:35:40.420Z,-4.40
2022-12-17T07:40:40.336Z,-4.38
2022-12-17T07:45:40.328Z,-4.35
2022-12-17T07:50:40.208Z,-4.30
2022-12-17T07:55:40.166Z,-4.26
2022-12-17T08:00:43.466Z,-4.21
2022-12-17T08:05:41.043Z,-4.17
2022-12-17T08:10:39.952Z,-4.13
2022-12-17T08:15:39.880Z,-4.10
2022-12-17T08:20:39.817Z,-4.10
2022-12-17T08:25:39.772Z,-4.09
2022-12-17T08:30:39.754Z,-4.08
2022-12-17T08:35:39.674Z,-4.06
2022-12-17T08:40:39.561Z,-4.04
2022-12-17T08:45:39.541Z,-4.03
2022-12-17T08:50:39.444Z,-4.02
2022-12-17T08:55:39.723Z,-3.98
2022-12-17T09:00:39.328Z,-3.93
2022-12-17T09:05:39.281Z,-3.87
2022-12-17T09:10:39.164Z,-3.82
2022-12-17T09:15:39.139Z,-3.77
2022-12-17T09:20:39.051Z,-3.71
2022-12-17T09:25:39.003Z,-3.63
2022-12-17T09:30:39.001Z,-3.54
2022-12-17T09:35:38.873Z,-3.47
2022-12-17T09:40:38.793Z,-3.44
2022-12-17T09:45:38.788Z,-3.43
2022-12-17T09:50:38.664Z,-3.42
2022-12-17T09:55:38.615Z,-3.41
2022-12-17T10:00:38.565Z,-3.37
2022-12-17T10:05:38.504Z,-3.31
2022-12-17T10:10:38.406Z,-3.23
2022-12-17T10:15:39.125Z,-3.17
2022-12-17T10:20:38.281Z,-3.11
2022-12-17T10:25:38.221Z,-3.03
2022-12-17T10:30:38.245Z,-2.91
2022-12-17T10:35:38.103Z,-2.78
2022-12-17T10:40:38.033Z,-2.70
2022-12-17T10:45:37.975Z,-2.66
2022-12-17T10:50:37.920Z,-2.64
2022-12-17T10:55:37.854Z,-2.63
2022-12-17T11:00:37.777Z,-2.57
2022-12-17T11:05:38.513Z,-2.49
2022-12-17T11:10:37.637Z,-2.42
2022-12-17T11:15:37.695Z,-2.37
2022-12-17T11:20:37.525Z,-2.33
2022-12-17T11:25:37.466Z,-2.26
2022-12-17T11:30:37.394Z,-2.24
2022-12-17T11:35:37.345Z,-2.23
2022-12-17T11:40:37.302Z,-2.16
2022-12-17T11:45:37.231Z,-2.06
2022-12-17T11:50:37.151Z,-1.96
2022-12-17T11:55:37.168Z,-1.91
2022-12-17T12:00:36.982Z,-1.89
2022-12-17T12:05:36.966Z,-1.89
2022-12-17T12:10:36.890Z,-1.91
2022-12-17T12:15:36.825Z,-1.93
2022-12-17T12:20:36.755Z,-1.91
2022-12-17T12:25:36.714Z,-1.83
2022-12-17T12:30:36.602Z,-1.70
2022-12-17T12:35:36.570Z,-1.53
2022-12-17T12:40:36.493Z,-1.36
2022-12-17T12:45:36.482Z,-1.14
2022-12-17T12:50:36.359Z,-0.82
2022-12-17T12:55:36.318Z,-0.46
2022-12-17T13:00:36.242Z,-0.11
2022-12-17T13:05:36.202Z,0.20
2022-12-17T13:10:36.120Z,0.41
2022-12-17T13:15:36.080Z,0.48
2022-12-17T13:20:35.994Z,0.37
2022-12-17T13:25:35.919Z,0.13
2022-12-17T13:30:35.857Z,-0.10
2022-12-17T13:35:35.914Z,-0.26
2022-12-17T13:40:35.742Z,-0.42
2022-12-17T13:45:35.758Z,-0.65
2022-12-17T13:50:36.673Z,-0.90
2022-12-17T13:55:35.561Z,-1.09
2022-12-17T14:00:35.450Z,-1.27
2022-12-17T14:05:35.418Z,-1.48
2022-12-17T14:10:35.340Z,-1.72
2022-12-17T14:15:35.331Z,-2.00
2022-12-17T14:20:35.238Z,-2.26
2022-12-17T14:25:35.174Z,-2.51
2022-12-17T14:30:35.098Z,-2.73
2022-12-17T14:35:35.070Z,-2.95
2022-12-17T14:40:35.815Z,-3.16
2022-12-17T14:45:34.965Z,-3.36
2022-12-17T14:50:34.855Z,-3.55
2022-12-17T14:55:34.825Z,-3.74
2022-12-17T15:00:34.707Z,-3.92
2022-12-17T15:05:34.648Z,-4.10
2022-12-17T15:10:34.584Z,-4.28
2022-12-17T15:15:34.492Z,-4.46
2022-12-17T15:20:34.458Z,-4.63
2022-12-17T15:25:37.623Z,-4.80
2022-12-17T15:30:35.391Z,-4.96
2022-12-17T15:35:34.247Z,-5.13
2022-12-17T15:40:34.180Z,-5.28
2022-12-17T15:45:34.150Z,-5.43
2022-12-17T15:50:34.089Z,-5.56
2022-12-17T15:55:34.010Z,-5.68
2022-12-17T16:00:33.911Z,-5.80
2022-12-17T16:05:33.879Z,-5.92
2022-12-17T16:10:33.826Z,-6.02
2022-12-17T16:15:33.836Z,-6.10
2022-12-17T16:20:33.702Z,-6.15
2022-12-17T16:25:33.640Z,-6.20
2022-12-17T16:30:33.551Z,-6.26
2022-12-17T16:35:33.520Z,-6.31
2022-12-17T16:40:33.421Z,-6.36
2022-12-17T16:45:33.366Z,-6.41
2022-12-17T16:50:33.315Z,-6.46
2022-12-17T16:55:33.282Z,-6.51
2022-12-17T17:00:33.205Z,-6.58
2022-12-17T17:05:33.180Z,-6.64
2022-12-17T17:10:33.062Z,-6.71
2022-12-17T17:15:33.054Z,-6.78
2022-12-17T17:20:32.953Z,-6.85
2022-12-17T17:25:50.594Z,-6.91
2022-12-17T17:30:33.823Z,-6.97
2022-12-17T17:35:32.744Z,-7.03
2022-12-17T17:40:32.701Z,-7.08
2022-12-17T17:45:32.637Z,-7.13
2022-12-17T17:50:32.548Z,-7.15
2022-12-17T17:55:32.523Z,-7.15
2022-12-17T18:00:32.469Z,-7.15
2022-12-17T18:05:35.798Z,-7.15
2022-12-17T18:10:33.341Z,-7.15
2022-12-17T18:15:32.287Z,-7.18
2022-12-17T18:20:32.199Z,-7.23
2022-12-17T18:25:37.301Z,-7.28
2022-12-17T18:30:33.085Z,-7.35
2022-12-17T18:35:32.115Z,-7.42
2022-12-17T18:40:33.576Z,-7.50
2022-12-17T18:45:31.907Z,-7.60
2022-12-17T18:50:31.843Z,-7.70
2022-12-17T18:55:31.784Z,-7.79
2022-12-17T19:00:31.861Z,-7.87
2022-12-17T19:05:31.700Z,-7.91
2022-12-17T19:10:31.593Z,-7.93
2022-12-17T19:15:31.533Z,-7.93
2022-12-17T19:20:31.477Z,-7.93
2022-12-17T19:25:31.433Z,-7.94
2022-12-17T19:30:31.352Z,-7.95
2022-12-17T19:35:31.312Z,-7.97
2022-12-17T19:40:31.257Z,-7.98
2022-12-17T19:45:31.215Z,-7.99
2022-12-17T19:50:31.117Z,-7.99
2022-12-17T19:55:31.051Z,-7.99
2022-12-17T20:00:31.034Z,-7.98
2022-12-17T20:05:30.938Z,-7.98
2022-12-17T20:10:30.877Z,-7.98
2022-12-17T20:15:30.839Z,-7.96
2022-12-17T20:20:31.590Z,-7.94
2022-12-17T20:25:30.725Z,-7.94
2022-12-17T20:30:30.648Z,-7.95
2022-12-17T20:35:30.580Z,-7.96
2022-12-17T20:40:30.482Z,-7.98
2022-12-17T20:45:30.500Z,-8.00
2022-12-17T20:50:30.401Z,-8.03
2022-12-17T20:55:31.372Z,-8.07
2022-12-17T21:00:30.247Z,-8.14
2022-12-17T21:05:30.205Z,-8.22
2022-12-17T21:10:30.158Z,-8.30
2022-12-17T21:15:30.080Z,-8.36
2022-12-17T21:20:30.022Z,-8.42
2022-12-17T21:25:29.968Z,-8.45
2022-12-17T21:30:29.931Z,-8.48
2022-12-17T21:35:29.857Z,-8.52
2022-12-17T21:40:29.784Z,-8.56
2022-12-17T21:45:29.736Z,-8.61
2022-12-17T21:50:29.656Z,-8.67
2022-12-17T21:55:29.605Z,-8.76
2022-12-17T22:00:29.539Z,-8.85
2022-12-17T22:05:29.495Z,-8.94
2022-12-17T22:10:40.561Z,-9.00
2022-12-17T22:15:34.991Z,-9.06
2022-12-17T22:20:30.278Z,-9.12
2022-12-17T22:25:29.249Z,-9.16
2022-12-17T22:30:29.159Z,-9.19
2022-12-17T22:38:27.026Z,-9.21
2022-12-17T22:44:30.506Z,-9.23
2022-12-17T22:45:29.968Z,-9.25
2022-12-17T22:50:32.213Z,-9.28
2022-12-17T22:55:29.913Z,-9.30
2022-12-17T23:00:28.800Z,-9.30
2022-12-17T23:05:28.749Z,-9.29
2022-12-17T23:10:28.656Z,-9.28
2022-12-17T23:15:28.721Z,-9.27
2022-12-17T23:20:28.576Z,-9.27
2022-12-17T23:25:28.535Z,-9.25
2022-12-17T23:30:28.426Z,-9.23
2022-12-17T23:35:28.382Z,-9.21
2022-12-17T23:40:28.321Z,-9.20
2022-12-17T23:45:28.243Z,-9.21
2022-12-17T23:50:28.214Z,-9.22
2022-12-17T23:55:28.166Z,-9.24
